createdAt,value
2018-01-17T00:01:31.025Z,92.10
2018-01-17T00:03:57.572Z,91.87
2018-01-17T00:06:23.973Z,94.47
2018-01-17T00:08:50.348Z,93.63
2018-01-17T00:11:16.757Z,102.80
2018-01-17T00:13:43.189Z,104.10
2018-01-17T00:16:09.578Z,115.10
2018-01-17T00:18:36.088Z,100.90
2018-01-17T00:21:02.521Z,101.90
2018-01-17T00:23:28.884Z,106.93
2018-01-17T00:25:55.252Z,113.00
2018-01-17T00:28:21.713Z,108.97
2018-01-17T00:30:48.116Z,114.10
2018-01-17T00:33:14.590Z,123.60
2018-01-17T00:35:41.010Z,118.30
2018-01-17T00:38:07.377Z,121.93
2018-01-17T00:40:33.796Z,92.77
2018-01-17T00:43:00.189Z,101.33
2018-01-17T00:45:26.672Z,96.17
2018-01-17T00:47:53.102Z,92.93
2018-01-17T00:50:19.517Z,91.63
2018-01-17T00:52:45.968Z,87.83
2018-01-17T00:55:12.476Z,87.73
2018-01-17T00:57:38.839Z,89.20
2018-01-17T01:00:05.280Z,78.03
2018-01-17T01:02:31.797Z,83.83
2018-01-17T01:04:58.189Z,75.03
2018-01-17T01:07:24.653Z,82.43
2018-01-17T01:09:51.057Z,80.67
2018-01-17T01:14:50.599Z,89.40
2018-01-17T01:17:17.008Z,89.27
2018-01-17T01:19:43.595Z,87.93
2018-01-17T01:22:10.001Z,92.87
2018-01-17T01:24:36.515Z,104.47
2018-01-17T01:27:02.866Z,104.57
2018-01-17T01:29:29.227Z,103.60
2018-01-17T01:31:55.713Z,101.83
2018-01-17T01:34:22.232Z,102.70
2018-01-17T01:36:48.588Z,97.67
2018-01-17T01:39:14.954Z,95.93
2018-01-17T01:41:41.440Z,89.23
2018-01-17T01:44:07.800Z,101.80
2018-01-17T01:46:34.260Z,106.03
2018-01-17T01:49:00.740Z,96.63
2018-01-17T01:51:27.172Z,104.10
2018-01-17T01:53:53.533Z,88.73
2018-01-17T01:56:19.964Z,85.83
2018-01-17T01:58:46.447Z,96.00
2018-01-17T02:01:12.904Z,95.00
2018-01-17T02:03:39.244Z,90.23
2018-01-17T02:06:05.695Z,94.90
2018-01-17T02:08:32.149Z,87.57
2018-01-17T02:10:58.504Z,83.53
2018-01-17T02:13:24.930Z,87.37
2018-01-17T02:15:51.355Z,88.77
2018-01-17T02:18:17.769Z,86.93
2018-01-17T02:20:44.196Z,81.50
2018-01-17T02:23:10.627Z,95.13
2018-01-17T02:25:37.095Z,79.57
2018-01-17T02:28:03.474Z,89.17
2018-01-17T02:30:29.944Z,84.87
2018-01-17T02:32:56.297Z,85.60
2018-01-17T02:35:22.637Z,84.07
2018-01-17T02:37:49.040Z,93.77
2018-01-17T02:40:27.696Z,94.50
2018-01-17T02:42:54.177Z,91.70
2018-01-17T02:45:20.817Z,85.47
2018-01-17T02:47:47.558Z,96.20
2018-01-17T02:50:14.006Z,93.47
2018-01-17T02:52:40.433Z,88.33
2018-01-17T02:55:06.943Z,93.53
2018-01-17T02:57:33.394Z,90.03
2018-01-17T02:59:59.914Z,89.77
2018-01-17T03:02:26.461Z,88.83
2018-01-17T03:04:52.921Z,95.03
2018-01-17T03:07:19.469Z,96.83
2018-01-17T03:09:45.955Z,89.00
2018-01-17T03:12:12.469Z,85.73
2018-01-17T03:14:38.885Z,84.33
2018-01-17T03:17:05.401Z,86.13
2018-01-17T03:19:31.913Z,87.00
2018-01-17T03:21:58.324Z,80.03
2018-01-17T03:24:24.796Z,93.77
2018-01-17T03:26:51.180Z,90.07
2018-01-17T03:29:17.635Z,97.23
2018-01-17T03:31:44.044Z,114.90
2018-01-17T03:34:10.580Z,103.73
2018-01-17T03:36:37.038Z,95.70
2018-01-17T03:39:03.616Z,93.30
2018-01-17T03:41:30.025Z,92.47
2018-01-17T03:43:56.480Z,86.37
2018-01-17T03:46:22.898Z,96.87
2018-01-17T03:48:49.256Z,90.57
2018-01-17T03:51:15.660Z,91.93
2018-01-17T03:53:42.173Z,89.30
2018-01-17T03:56:08.581Z,103.10
2018-01-17T03:58:35.029Z,108.27
2018-01-17T04:01:01.485Z,99.10
2018-01-17T04:03:27.948Z,123.53
2018-01-17T04:05:54.421Z,105.63
2018-01-17T04:08:20.825Z,113.77
2018-01-17T04:10:47.200Z,110.93
2018-01-17T04:13:13.617Z,111.97
2018-01-17T04:15:40.005Z,107.87
2018-01-17T04:18:06.386Z,106.97
2018-01-17T04:20:32.813Z,108.37
2018-01-17T04:22:59.236Z,102.47
2018-01-17T04:25:25.693Z,114.27
2018-01-17T04:27:52.056Z,111.17
2018-01-17T04:30:18.428Z,106.70
2018-01-17T04:32:44.779Z,107.13
2018-01-17T04:35:11.156Z,109.53
2018-01-17T04:37:37.537Z,112.77
2018-01-17T04:40:03.984Z,115.57
2018-01-17T04:42:30.448Z,109.53
2018-01-17T04:44:56.796Z,120.27
2018-01-17T04:47:23.248Z,126.27
2018-01-17T04:49:49.661Z,123.10
2018-01-17T04:52:16.061Z,120.10
2018-01-17T04:54:42.477Z,150.17
2018-01-17T04:57:08.856Z,116.73
2018-01-17T04:59:35.247Z,109.47
2018-01-17T05:02:01.690Z,123.33
2018-01-17T05:04:28.066Z,123.60
2018-01-17T05:06:54.411Z,114.00
2018-01-17T05:09:20.857Z,124.57
2018-01-17T05:11:47.270Z,146.67
2018-01-17T05:14:13.681Z,137.27
2018-01-17T05:16:40.118Z,134.47
2018-01-17T05:19:06.552Z,130.77
2018-01-17T05:21:33.052Z,180.30
2018-01-17T05:23:59.544Z,144.73
2018-01-17T05:26:25.960Z,126.93
2018-01-17T05:28:52.332Z,121.97
2018-01-17T05:31:18.734Z,130.10
2018-01-17T05:33:45.093Z,112.63
2018-01-17T05:36:11.505Z,115.67
2018-01-17T05:38:37.921Z,97.13
2018-01-17T05:41:04.265Z,99.30
2018-01-17T05:43:30.701Z,94.00
2018-01-17T05:45:57.080Z,116.80
2018-01-17T05:48:23.452Z,124.97
2018-01-17T05:50:49.877Z,104.57
2018-01-17T05:53:16.293Z,100.63
2018-01-17T05:55:42.677Z,102.23
2018-01-17T05:58:09.085Z,89.73
2018-01-17T06:00:35.575Z,104.90
2018-01-17T06:03:02.041Z,124.57
2018-01-17T06:05:28.438Z,154.10
2018-01-17T06:07:54.828Z,124.00
2018-01-17T06:10:21.250Z,114.87
2018-01-17T06:12:47.639Z,131.70
2018-01-17T06:15:14.114Z,121.83
2018-01-17T06:17:40.552Z,129.93
2018-01-17T06:20:06.977Z,134.33
2018-01-17T06:22:33.400Z,131.20
2018-01-17T06:24:59.871Z,108.17
2018-01-17T06:27:26.292Z,118.47
2018-01-17T06:29:52.705Z,126.30
2018-01-17T06:32:19.368Z,120.27
2018-01-17T06:34:45.723Z,127.20
2018-01-17T06:37:12.117Z,118.67
2018-01-17T06:39:38.516Z,124.67
2018-01-17T06:42:04.944Z,136.13
2018-01-17T06:44:31.345Z,135.33
2018-01-17T06:46:57.728Z,121.03
2018-01-17T06:49:24.167Z,116.00
2018-01-17T06:51:50.512Z,121.33
2018-01-17T06:54:16.873Z,131.60
2018-01-17T06:56:43.298Z,149.50
2018-01-17T06:59:09.696Z,144.80
2018-01-17T07:01:36.120Z,139.83
2018-01-17T07:04:02.588Z,166.70
2018-01-17T07:06:28.988Z,171.63
2018-01-17T07:08:55.378Z,161.57
2018-01-17T07:11:21.831Z,180.67
2018-01-17T07:13:48.301Z,181.37
2018-01-17T07:16:14.677Z,168.93
2018-01-17T07:18:41.156Z,156.67
2018-01-17T07:21:07.550Z,181.03
2018-01-17T07:23:34.061Z,163.20
2018-01-17T07:26:00.494Z,182.17
2018-01-17T07:28:26.923Z,185.47
2018-01-17T07:30:53.305Z,173.20
2018-01-17T07:33:19.720Z,163.37
2018-01-17T07:35:46.121Z,182.47
2018-01-17T07:38:12.608Z,156.33
2018-01-17T07:40:39.053Z,169.47
2018-01-17T07:43:05.440Z,194.07
2018-01-17T07:45:31.908Z,253.67
2018-01-17T07:47:58.345Z,225.07
2018-01-17T07:50:24.753Z,246.93
2018-01-17T07:52:51.168Z,194.27
2018-01-17T07:55:17.626Z,175.83
2018-01-17T07:57:44.025Z,242.27
2018-01-17T08:00:10.484Z,252.60
2018-01-17T08:02:36.917Z,202.90
2018-01-17T08:05:03.367Z,175.97
2018-01-17T08:07:29.747Z,169.60
2018-01-17T08:09:56.223Z,170.73
2018-01-17T08:12:23.177Z,181.80
2018-01-17T08:14:49.521Z,186.77
2018-01-17T08:17:15.918Z,183.80
2018-01-17T08:19:42.285Z,175.27
2018-01-17T08:22:08.792Z,172.53
2018-01-17T08:24:35.292Z,154.30
2018-01-17T08:27:01.656Z,139.17
2018-01-17T08:29:28.084Z,145.13
2018-01-17T08:31:54.499Z,143.87
2018-01-17T08:34:20.901Z,118.30
2018-01-17T08:36:47.256Z,106.10
2018-01-17T08:39:13.688Z,101.07
2018-01-17T08:41:40.097Z,95.77
2018-01-17T08:44:06.442Z,94.97
2018-01-17T08:46:32.881Z,110.63
2018-01-17T08:48:59.289Z,126.47
2018-01-17T08:51:25.684Z,130.20
2018-01-17T08:53:52.182Z,126.40
2018-01-17T08:56:18.517Z,127.67
2018-01-17T08:58:44.884Z,130.23
2018-01-17T09:01:11.286Z,118.50
2018-01-17T09:03:37.717Z,110.50
2018-01-17T09:06:04.207Z,108.13
2018-01-17T09:08:30.633Z,93.87
2018-01-17T09:10:57.018Z,86.83
2018-01-17T09:13:23.413Z,91.77
2018-01-17T09:15:49.808Z,102.20
2018-01-17T09:18:16.207Z,105.90
2018-01-17T09:20:42.651Z,104.70
2018-01-17T09:23:09.078Z,110.13
2018-01-17T09:25:35.542Z,90.27
2018-01-17T09:28:02.024Z,89.83
2018-01-17T09:30:28.445Z,83.97
2018-01-17T09:32:54.837Z,80.20
2018-01-17T09:35:21.269Z,65.90
2018-01-17T09:37:47.667Z,71.03
2018-01-17T09:40:14.065Z,80.30
2018-01-17T09:42:40.521Z,97.83
2018-01-17T09:45:06.901Z,83.27
2018-01-17T09:47:33.265Z,74.73
2018-01-17T09:49:59.718Z,77.73
2018-01-17T09:52:26.236Z,78.00
2018-01-17T09:54:52.609Z,84.63
2018-01-17T09:57:18.972Z,84.43
2018-01-17T09:59:45.397Z,84.57
2018-01-17T10:02:11.765Z,75.27
2018-01-17T10:04:38.138Z,91.43
2018-01-17T10:07:04.553Z,98.67
2018-01-17T10:09:30.950Z,101.10
2018-01-17T10:11:57.353Z,94.97
2018-01-17T10:14:23.761Z,96.53
2018-01-17T10:16:50.129Z,80.83
2018-01-17T10:19:16.520Z,73.50
2018-01-17T10:21:42.960Z,59.60
2018-01-17T10:24:09.405Z,60.20
2018-01-17T10:26:35.857Z,67.50
2018-01-17T10:29:02.249Z,75.57
2018-01-17T10:31:29.873Z,70.13
2018-01-17T10:33:56.241Z,60.13
2018-01-17T10:36:22.577Z,66.30
2018-01-17T10:38:48.962Z,61.90
2018-01-17T10:41:15.353Z,64.37
2018-01-17T10:43:41.748Z,55.97
2018-01-17T10:46:08.253Z,66.57
2018-01-17T10:48:34.640Z,61.37
2018-01-17T10:51:00.984Z,53.30
2018-01-17T10:53:27.380Z,52.77
2018-01-17T10:55:53.776Z,59.83
2018-01-17T10:58:20.162Z,69.27
2018-01-17T11:00:46.545Z,66.77
2018-01-17T11:03:12.959Z,57.73
2018-01-17T11:05:39.452Z,68.20
2018-01-17T11:08:05.857Z,58.00
2018-01-17T11:10:32.396Z,46.20
2018-01-17T11:12:58.816Z,57.43
2018-01-17T11:15:25.201Z,46.83
2018-01-17T11:17:51.608Z,45.47
2018-01-17T11:20:18.168Z,50.47
2018-01-17T11:22:44.536Z,55.57
2018-01-17T11:25:10.952Z,52.77
2018-01-17T11:27:37.387Z,46.90
2018-01-17T11:30:03.875Z,49.63
2018-01-17T11:32:30.325Z,48.40
2018-01-17T11:34:56.700Z,41.90
2018-01-17T11:37:23.077Z,40.10
2018-01-17T11:39:49.500Z,42.50
2018-01-17T11:42:15.934Z,35.93
2018-01-17T11:44:42.341Z,32.47
2018-01-17T11:47:08.892Z,32.87
2018-01-17T11:49:35.384Z,30.53
2018-01-17T11:52:02.294Z,30.57
2018-01-17T11:54:28.713Z,29.33
2018-01-17T11:56:55.160Z,31.83
2018-01-17T11:59:21.629Z,33.03
2018-01-17T12:01:48.128Z,35.07
2018-01-17T12:04:14.464Z,26.77
2018-01-17T12:06:40.870Z,26.77
2018-01-17T12:09:07.339Z,25.10
2018-01-17T12:11:33.741Z,26.23
2018-01-17T12:14:00.132Z,31.87
2018-01-17T12:16:26.572Z,30.83
2018-01-17T12:18:52.976Z,31.57
2018-01-17T12:21:19.401Z,35.87
2018-01-17T12:23:45.873Z,34.30
2018-01-17T12:26:12.336Z,47.30
2018-01-17T12:28:38.897Z,48.80
2018-01-17T12:31:05.281Z,49.73
2018-01-17T12:33:31.745Z,49.90
2018-01-17T12:35:58.212Z,43.03
2018-01-17T12:38:24.661Z,66.97
2018-01-17T12:40:51.064Z,80.67
2018-01-17T12:43:17.554Z,69.50
2018-01-17T12:45:43.907Z,66.03
2018-01-17T12:48:10.300Z,71.27
2018-01-17T12:50:36.696Z,53.23
2018-01-17T12:53:03.136Z,42.63
2018-01-17T12:55:29.517Z,34.57
2018-01-17T12:57:55.948Z,35.90
2018-01-17T13:00:22.373Z,34.87
2018-01-17T13:02:48.757Z,37.13
2018-01-17T13:05:15.167Z,32.93
2018-01-17T13:07:41.700Z,32.57
2018-01-17T13:10:08.104Z,32.40
2018-01-17T13:12:34.528Z,45.47
2018-01-17T13:15:00.872Z,47.83
2018-01-17T13:17:27.265Z,47.90
2018-01-17T13:19:53.617Z,42.77
2018-01-17T13:22:20.048Z,46.83
2018-01-17T13:24:46.505Z,50.90
2018-01-17T13:27:12.925Z,38.77
2018-01-17T13:29:39.352Z,21.80
2018-01-17T13:32:05.766Z,16.33
2018-01-17T13:34:32.177Z,13.63
2018-01-17T13:36:58.580Z,12.57
2018-01-17T13:39:25.005Z,17.80
2018-01-17T13:41:51.541Z,14.50
2018-01-17T13:44:17.949Z,21.10
2018-01-17T13:46:44.326Z,16.90
2018-01-17T13:49:10.878Z,15.77
2018-01-17T13:51:37.326Z,11.67
2018-01-17T13:54:03.728Z,14.13
2018-01-17T13:56:30.216Z,15.13
2018-01-17T13:58:56.616Z,13.83
2018-01-17T14:01:23.007Z,12.70
2018-01-17T14:03:49.440Z,15.53
2018-01-17T14:06:15.781Z,11.33
2018-01-17T14:08:42.156Z,17.63
2018-01-17T14:11:08.572Z,16.33
2018-01-17T14:13:35.068Z,13.60
2018-01-17T14:16:01.506Z,14.97
2018-01-17T14:18:27.911Z,14.03
2018-01-17T14:20:54.320Z,9.07
2018-01-17T14:23:20.820Z,13.03
2018-01-17T14:25:47.192Z,13.23
2018-01-17T14:28:13.565Z,11.67
2018-01-17T14:30:39.972Z,17.00
2018-01-17T14:33:06.372Z,14.23
2018-01-17T14:35:32.790Z,18.13
2018-01-17T14:37:59.252Z,13.13
2018-01-17T14:40:25.652Z,13.93
2018-01-17T14:42:58.200Z,11.33
2018-01-17T14:45:24.624Z,14.00
2018-01-17T14:47:50.997Z,14.20
2018-01-17T14:50:17.380Z,14.00
2018-01-17T14:52:43.876Z,16.67
2018-01-17T14:55:10.300Z,14.30
2018-01-17T14:57:36.760Z,15.43
2018-01-17T15:00:03.240Z,15.77
2018-01-17T15:02:29.684Z,14.60
2018-01-17T15:04:56.081Z,14.23
2018-01-17T15:07:22.524Z,14.47
2018-01-17T15:09:48.952Z,15.20
2018-01-17T15:12:15.304Z,12.77
2018-01-17T15:14:41.672Z,12.40
2018-01-17T15:17:08.072Z,13.77
2018-01-17T15:19:34.524Z,13.43
2018-01-17T15:22:00.944Z,12.30
2018-01-17T15:24:27.390Z,18.23
2018-01-17T15:26:53.808Z,13.90
2018-01-17T15:29:20.240Z,13.33
2018-01-17T15:31:46.640Z,17.20
2018-01-17T15:34:13.001Z,14.43
2018-01-17T15:36:39.397Z,14.50
2018-01-17T15:39:05.785Z,14.43
2018-01-17T15:41:32.244Z,15.27
2018-01-17T15:43:58.709Z,17.57
2018-01-17T15:46:25.312Z,19.87
2018-01-17T15:48:51.700Z,16.60
2018-01-17T15:51:18.200Z,23.43
2018-01-17T15:53:44.676Z,23.50
2018-01-17T15:56:11.066Z,18.03
2018-01-17T15:58:37.445Z,16.73
2018-01-17T16:01:03.965Z,17.63
2018-01-17T16:03:30.334Z,16.60
2018-01-17T16:05:56.701Z,19.00
2018-01-17T16:08:23.097Z,20.70
2018-01-17T16:10:49.477Z,19.97
2018-01-17T16:13:15.806Z,20.53
2018-01-17T16:15:42.156Z,18.30
2018-01-17T16:18:08.489Z,18.83
2018-01-17T16:20:34.881Z,17.97
2018-01-17T16:23:01.408Z,16.43
2018-01-17T16:25:27.819Z,15.90
2018-01-17T16:27:54.221Z,22.53
2018-01-17T16:30:20.601Z,20.17
2018-01-17T16:32:46.994Z,17.30
2018-01-17T16:35:13.344Z,18.07
2018-01-17T16:37:39.745Z,22.23
2018-01-17T16:40:06.148Z,17.63
2018-01-17T16:42:32.513Z,18.60
2018-01-17T16:44:58.972Z,16.80
2018-01-17T16:47:25.311Z,16.07
2018-01-17T16:49:51.684Z,16.60
2018-01-17T16:52:18.077Z,16.53
2018-01-17T16:54:44.429Z,15.53
2018-01-17T16:57:10.808Z,23.00
2018-01-17T16:59:37.184Z,16.33
2018-01-17T17:02:03.624Z,16.67
2018-01-17T17:04:29.997Z,17.47
2018-01-17T17:06:56.360Z,25.30
2018-01-17T17:09:22.779Z,21.47
2018-01-17T17:11:49.364Z,13.87
2018-01-17T17:14:16.111Z,19.40
2018-01-17T17:16:43.196Z,26.37
2018-01-17T17:19:10.065Z,27.10
2018-01-17T17:21:37.037Z,21.97
2018-01-17T17:24:03.522Z,22.60
2018-01-17T17:26:29.869Z,27.63
2018-01-17T17:28:56.267Z,24.07
2018-01-17T17:31:22.612Z,24.17
2018-01-17T17:33:48.948Z,19.67
2018-01-17T17:36:15.436Z,17.87
2018-01-17T17:38:41.834Z,23.10
2018-01-17T17:41:08.225Z,18.07
2018-01-17T17:43:34.642Z,13.93
2018-01-17T17:46:01.040Z,13.70
2018-01-17T17:48:27.377Z,14.23
2018-01-17T17:50:54.389Z,13.30
2018-01-17T17:53:21.395Z,16.87
2018-01-17T17:55:49.049Z,15.27
2018-01-17T17:58:17.261Z,15.27
2018-01-17T18:00:44.924Z,12.87
2018-01-17T18:03:11.718Z,13.37
2018-01-17T18:05:39.120Z,14.00
2018-01-17T18:08:06.146Z,11.20
2018-01-17T18:10:33.058Z,15.10
2018-01-17T18:13:00.546Z,13.20
2018-01-17T18:15:26.988Z,13.50
2018-01-17T18:17:53.411Z,12.63
2018-01-17T18:20:19.828Z,12.83
2018-01-17T18:22:46.266Z,15.23
2018-01-17T18:25:12.681Z,12.33
2018-01-17T18:27:39.020Z,14.60
2018-01-17T18:30:05.685Z,15.47
2018-01-17T18:32:32.514Z,11.47
2018-01-17T18:34:59.445Z,11.40
2018-01-17T18:37:27.013Z,13.10
2018-01-17T18:39:54.046Z,16.60
2018-01-17T18:42:21.029Z,15.87
2018-01-17T18:44:47.931Z,13.30
2018-01-17T18:47:14.870Z,14.67
2018-01-17T18:49:41.747Z,13.77
2018-01-17T18:52:08.557Z,14.07
2018-01-17T18:54:34.915Z,14.30
2018-01-17T18:57:01.433Z,18.67
2018-01-17T18:59:27.804Z,21.80
2018-01-17T19:01:54.160Z,21.80
2018-01-17T19:04:20.575Z,21.07
2018-01-17T19:06:46.909Z,21.67
2018-01-17T19:09:13.236Z,22.87
2018-01-17T19:11:39.564Z,30.03
2018-01-17T19:14:05.952Z,52.90
2018-01-17T19:16:32.329Z,37.83
2018-01-17T19:18:58.653Z,21.40
2018-01-17T19:21:25.038Z,18.10
2018-01-17T19:23:51.471Z,17.83
2018-01-17T19:26:17.833Z,23.60
2018-01-17T19:28:44.220Z,22.80
2018-01-17T19:31:10.608Z,18.67
2018-01-17T19:33:36.953Z,16.63
2018-01-17T19:36:03.333Z,16.80
2018-01-17T19:38:29.733Z,26.40
2018-01-17T19:40:56.105Z,23.43
2018-01-17T19:43:22.468Z,20.30
2018-01-17T19:45:48.897Z,18.37
2018-01-17T19:48:15.225Z,21.30
2018-01-17T19:50:41.624Z,25.77
2018-01-17T19:53:07.993Z,23.77
2018-01-17T19:55:34.349Z,23.20
2018-01-17T19:58:00.748Z,18.07
2018-01-17T20:00:27.145Z,19.63
2018-01-17T20:02:53.609Z,23.20
2018-01-17T20:05:20.057Z,18.80
2018-01-17T20:07:46.411Z,13.43
2018-01-17T20:10:12.788Z,16.03
2018-01-17T20:12:39.135Z,17.63
2018-01-17T20:15:05.534Z,13.93
2018-01-17T20:17:31.962Z,14.47
2018-01-17T20:19:58.393Z,13.67
2018-01-17T20:22:24.821Z,15.83
2018-01-17T20:24:51.233Z,17.70
2018-01-17T20:27:17.604Z,17.20
2018-01-17T20:29:44.062Z,14.80
2018-01-17T20:32:10.457Z,16.17
2018-01-17T20:34:36.820Z,13.63
2018-01-17T20:37:03.169Z,14.93
2018-01-17T20:39:35.817Z,11.93
2018-01-17T20:42:02.253Z,12.40
2018-01-17T20:44:28.601Z,15.33
2018-01-17T20:46:55.337Z,11.80
2018-01-17T20:49:21.833Z,60.97
2018-01-17T20:51:50.300Z,72.57
2018-01-17T20:54:16.853Z,79.40
2018-01-17T20:56:43.846Z,66.70
2018-01-17T20:59:11.384Z,64.30
2018-01-17T21:04:59.725Z,64.67
2018-01-17T21:07:26.096Z,69.70
2018-01-17T21:09:52.437Z,84.20
2018-01-17T21:12:18.813Z,85.83
2018-01-17T21:14:45.176Z,90.57
2018-01-17T21:17:11.513Z,99.50
2018-01-17T21:19:37.973Z,104.33
2018-01-17T21:22:04.343Z,101.47
2018-01-17T21:24:30.697Z,102.00
2018-01-17T21:26:57.069Z,93.83
2018-01-17T21:29:23.401Z,109.67
2018-01-17T21:31:49.789Z,91.67
2018-01-17T21:34:16.205Z,92.60
2018-01-17T21:36:42.565Z,88.60
2018-01-17T21:39:08.968Z,75.87
2018-01-17T21:41:35.460Z,69.57
2018-01-17T21:44:07.856Z,66.57
2018-01-17T21:46:36.256Z,56.73
2018-01-17T21:49:02.686Z,66.53
2018-01-17T21:51:29.116Z,54.13
2018-01-17T21:53:55.529Z,59.43
2018-01-17T21:56:21.840Z,50.97
2018-01-17T21:58:48.221Z,57.80
2018-01-17T22:01:14.671Z,41.47
2018-01-17T22:03:41.043Z,43.33
2018-01-17T22:06:07.461Z,29.50
2018-01-17T22:08:33.869Z,19.03
2018-01-17T22:11:00.252Z,9.77
2018-01-17T22:13:26.595Z,6.37
2018-01-17T22:15:52.992Z,5.53
2018-01-17T22:18:19.438Z,5.23
2018-01-17T22:20:45.825Z,4.23
2018-01-17T22:23:12.193Z,2.43
2018-01-17T22:25:38.572Z,2.80
2018-01-17T22:28:04.938Z,2.57
2018-01-17T22:30:31.333Z,2.43
2018-01-17T22:32:57.720Z,2.67
2018-01-17T22:35:24.077Z,2.40
2018-01-17T22:37:50.428Z,2.77
2018-01-17T22:40:16.828Z,2.60
2018-01-17T22:42:43.170Z,3.70
2018-01-17T22:45:09.557Z,2.10
2018-01-17T22:47:35.908Z,6.60
2018-01-17T22:50:02.349Z,3.30
2018-01-17T22:52:28.765Z,2.20
2018-01-17T22:54:55.178Z,2.60
2018-01-17T22:57:21.581Z,2.73
2018-01-17T22:59:48.001Z,3.27
2018-01-17T23:02:14.317Z,2.47
2018-01-17T23:04:40.799Z,2.43
2018-01-17T23:07:07.176Z,3.53
2018-01-17T23:09:33.552Z,1.83
2018-01-17T23:12:00.039Z,2.17
2018-01-17T23:14:26.460Z,2.33
2018-01-17T23:16:52.874Z,2.43
2018-01-17T23:19:19.225Z,2.47
2018-01-17T23:21:45.588Z,2.10
2018-01-17T23:24:11.968Z,2.87
2018-01-17T23:26:38.378Z,1.90
2018-01-17T23:29:04.757Z,1.90
2018-01-17T23:31:31.105Z,2.70
2018-01-17T23:33:57.496Z,1.80
2018-01-17T23:36:23.929Z,2.00
2018-01-17T23:38:50.313Z,2.50
2018-01-17T23:41:16.700Z,3.00
2018-01-17T23:43:43.126Z,1.70
2018-01-17T23:46:09.484Z,2.00
2018-01-17T23:48:35.832Z,2.13
2018-01-17T23:51:02.300Z,1.93
2018-01-17T23:53:28.676Z,1.90
2018-01-17T23:55:55.089Z,1.80
2018-01-17T23:58:21.549Z,2.07
